Time;durP1;ratioP1;P1;durP2;ratioP2;P2;SDS_P1;SDS_P2;PMS_P1;PMS_P2;Temp;Humidity;BMP_temperature;BMP_pressure;BME280_temperature;BME280_humidity;BME280_pressure;Samples;Min_cycle;Max_cycle;Signal;HPM_P1;HPM_P2
2023/03/14 00:00:52;;;;;;;12.83;2.83;;;12.90;99.90;;;;;;5012510;28;20026;-78
2023/03/14 00:03:18;;;;;;;15.00;3.30;;;12.90;99.90;;;;;;5010538;28;20074;-79
2023/03/14 00:05:44;;;;;;;15.60;3.35;;;12.90;99.90;;;;;;5011981;28;20026;-77
2023/03/14 00:08:11;;;;;;;16.58;3.33;;;12.90;99.90;;;;;;5010277;28;20037;-78
2023/03/14 00:10:38;;;;;;;13.38;3.08;;;12.80;99.90;;;;;;5011731;28;20101;-78
2023/03/14 00:13:04;;;;;;;14.75;3.05;;;12.80;99.90;;;;;;5011851;28;20366;-79
2023/03/14 00:15:30;;;;;;;20.30;3.73;;;12.80;99.90;;;;;;5011594;28;20450;-77
2023/03/14 00:17:57;;;;;;;17.97;3.63;;;12.80;99.90;;;;;;5011950;28;20058;-77
2023/03/14 00:20:24;;;;;;;13.13;2.60;;;12.70;99.90;;;;;;5011897;28;20054;-78
2023/03/14 00:22:52;;;;;;;13.27;2.97;;;12.70;99.90;;;;;;5011600;28;20034;-78
2023/03/14 00:25:18;;;;;;;10.88;2.85;;;12.60;99.90;;;;;;5011449;28;20489;-78
2023/03/14 00:27:44;;;;;;;19.20;3.00;;;12.70;99.90;;;;;;5011655;28;20084;-78
2023/03/14 00:30:11;;;;;;;19.43;3.93;;;12.60;99.90;;;;;;5010248;28;20493;-76
2023/03/14 00:32:37;;;;;;;14.43;3.03;;;12.50;99.90;;;;;;5011702;28;20835;-77
2023/03/14 00:35:07;;;;;;;14.40;3.10;;;12.40;99.90;;;;;;5013142;28;20052;-78
2023/03/14 00:37:33;;;;;;;12.10;2.97;;;12.30;99.90;;;;;;5015467;28;20301;-78
2023/03/14 00:40:00;;;;;;;13.80;3.30;;;12.30;99.90;;;;;;5015233;28;20061;-78
2023/03/14 00:42:27;;;;;;;15.83;3.33;;;12.30;99.90;;;;;;5015721;28;20022;-77
2023/03/14 00:44:54;;;;;;;16.98;3.70;;;12.40;99.90;;;;;;5014104;28;20022;-76
2023/03/14 00:47:20;;;;;;;;;;;12.40;99.90;;;;;;5015594;28;20045;-78
2023/03/14 00:49:47;;;;;;;18.75;3.88;;;12.30;99.90;;;;;;5013891;28;20277;-77
2023/03/14 00:52:13;;;;;;;12.52;3.75;;;12.30;99.90;;;;;;5015538;28;20030;-77
2023/03/14 00:54:39;;;;;;;20.80;3.53;;;12.20;99.90;;;;;;5015008;28;20026;-77
2023/03/14 00:57:05;;;;;;;19.38;4.05;;;12.20;99.90;;;;;;5015441;28;20306;-77
2023/03/14 00:59:31;;;;;;;16.07;3.40;;;12.20;99.90;;;;;;5015432;28;20030;-75
2023/03/14 01:01:57;;;;;;;18.95;4.70;;;12.20;99.90;;;;;;5013652;28;20026;-78
2023/03/14 01:04:24;;;;;;;15.35;3.85;;;12.20;99.90;;;;;;5013572;28;20060;-78
2023/03/14 01:06:50;;;;;;;18.17;3.65;;;12.20;99.90;;;;;;5013629;28;20030;-78
2023/03/14 01:09:17;;;;;;;19.47;4.20;;;12.00;99.90;;;;;;5013475;28;20478;-77
2023/03/14 01:11:46;;;;;;;;;;;12.10;99.90;;;;;;5015483;28;20295;-77
2023/03/14 01:14:12;;;;;;;15.77;4.57;;;12.00;99.90;;;;;;5015163;28;20344;-78
2023/03/14 01:16:45;;;;;;;18.17;5.00;;;12.00;99.90;;;;;;5014893;28;20042;-77
2023/03/14 01:19:11;;;;;;;17.63;4.72;;;12.00;99.90;;;;;;5019030;28;20033;-78
2023/03/14 01:21:37;;;;;;;18.45;4.68;;;12.10;99.90;;;;;;5015445;28;20034;-76
2023/03/14 01:24:06;;;;;;;17.85;4.65;;;12.10;99.90;;;;;;5014684;28;20113;-77
2023/03/14 01:26:34;;;;;;;15.75;4.38;;;12.10;99.90;;;;;;5013566;28;20033;-77
2023/03/14 01:29:01;;;;;;;22.10;4.95;;;12.20;99.90;;;;;;5013285;28;20053;-78
2023/03/14 01:31:29;;;;;;;19.50;4.43;;;12.20;99.90;;;;;;5012989;28;20102;-78
2023/03/14 01:33:56;;;;;;;23.23;4.70;;;12.30;99.90;;;;;;5014443;28;20046;-78
2023/03/14 01:36:22;;;;;;;19.17;4.90;;;12.40;99.90;;;;;;5014826;28;20029;-78
2023/03/14 01:38:49;;;;;;;14.50;4.40;;;12.40;99.90;;;;;;5014655;28;20474;-78
2023/03/14 01:41:19;;;;;;;19.08;5.35;;;12.40;99.90;;;;;;5014169;28;20524;-77
2023/03/14 01:43:45;;;;;;;21.10;4.97;;;12.40;99.90;;;;;;5014338;28;20053;-78
2023/03/14 01:46:35;;;;;;;20.75;5.07;;;12.50;99.90;;;;;;5012315;28;20022;-79
2023/03/14 01:49:33;;;;;;;20.13;4.72;;;12.50;99.90;;;;;;5014463;28;20116;-77
2023/03/14 01:52:17;;;;;;;17.48;4.88;;;12.30;99.90;;;;;;5014461;28;20109;-78
2023/03/14 01:54:50;;;;;;;20.85;5.13;;;12.20;99.90;;;;;;5014163;28;20516;-77
2023/03/14 01:57:26;;;;;;;23.95;5.20;;;12.10;99.90;;;;;;5014066;28;20030;-78
2023/03/14 01:59:56;;;;;;;23.65;4.68;;;12.10;99.90;;;;;;5013980;28;20034;-78
2023/03/14 02:02:23;;;;;;;20.30;4.80;;;12.20;99.90;;;;;;5014041;28;20057;-78
2023/03/14 02:04:49;;;;;;;;;;;12.10;99.90;;;;;;5014817;28;20026;-77
2023/03/14 02:07:40;;;;;;;16.08;5.00;;;12.00;99.90;;;;;;5013878;28;19905;-78
2023/03/14 02:10:07;;;;;;;18.48;5.20;;;12.10;99.90;;;;;;4972591;28;20042;-78
2023/03/14 02:12:36;;;;;;;16.10;5.00;;;12.20;99.90;;;;;;4972754;28;20051;-78
2023/03/14 02:15:07;;;;;;;19.83;5.10;;;12.30;99.90;;;;;;4973098;28;20337;-77
2023/03/14 02:17:35;;;;;;;19.52;5.13;;;12.30;99.90;;;;;;4972505;28;20054;-78
2023/03/14 02:20:27;;;;;;;15.70;4.72;;;12.30;99.90;;;;;;4972526;28;20130;-78
2023/03/14 02:22:54;;;;;;;20.10;5.15;;;12.40;99.90;;;;;;4972670;28;20038;-78
2023/03/14 02:25:39;;;;;;;18.48;5.32;;;12.30;99.90;;;;;;4972223;28;20031;-78
2023/03/14 02:28:06;;;;;;;23.15;5.28;;;12.30;99.90;;;;;;4972102;28;20101;-78
2023/03/14 02:30:34;;;;;;;21.77;5.72;;;12.40;99.90;;;;;;4956486;28;20027;-78
2023/03/14 02:33:10;;;;;;;16.95;4.43;;;12.40;99.90;;;;;;4955891;28;20039;-78
2023/03/14 02:35:43;;;;;;;16.90;4.72;;;12.40;99.90;;;;;;4972464;28;20145;-78
2023/03/14 02:38:15;;;;;;;19.05;4.75;;;12.40;99.90;;;;;;4972092;28;20103;-78
2023/03/14 02:40:42;;;;;;;20.05;4.95;;;12.40;99.90;;;;;;4972291;28;20035;-79
2023/03/14 02:43:08;;;;;;;23.45;5.20;;;12.50;99.90;;;;;;4979047;28;20031;-78
2023/03/14 02:45:47;;;;;;;20.10;4.93;;;12.60;99.90;;;;;;4972434;28;20023;-78
2023/03/14 02:48:24;;;;;;;17.67;4.10;;;12.60;99.90;;;;;;4972031;28;20439;-78
2023/03/14 02:50:54;;;;;;;14.85;4.40;;;12.70;99.90;;;;;;4974275;28;20019;-78
2023/03/14 02:53:29;;;;;;;16.35;4.57;;;12.70;99.90;;;;;;4974254;28;20038;-78
2023/03/14 02:55:56;;;;;;;19.33;4.82;;;12.70;99.90;;;;;;4972685;28;20034;-78
2023/03/14 02:58:27;;;;;;;14.90;4.72;;;12.70;99.90;;;;;;4973183;28;20388;-78
2023/03/14 03:00:55;;;;;;;18.45;4.18;;;12.60;99.90;;;;;;4974261;28;20073;-77
2023/03/14 03:03:22;;;;;;;15.57;3.95;;;12.70;99.90;;;;;;4974191;28;20049;-78
2023/03/14 03:05:50;;;;;;;17.05;4.35;;;12.60;99.90;;;;;;4973723;28;20549;-78
2023/03/14 03:08:18;;;;;;;18.20;4.70;;;12.70;99.90;;;;;;4990349;28;20113;-78
2023/03/14 03:10:44;;;;;;;19.17;4.50;;;12.60;99.90;;;;;;4993020;28;20018;-78
2023/03/14 03:13:11;;;;;;;17.95;3.92;;;12.70;99.90;;;;;;4993103;28;20054;-78
2023/03/14 03:15:39;;;;;;;22.42;3.80;;;12.80;99.90;;;;;;4993363;28;20022;-78
2023/03/14 03:18:05;;;;;;;13.75;3.67;;;12.70;99.90;;;;;;5009028;28;20049;-78
2023/03/14 03:20:31;;;;;;;18.42;3.65;;;12.60;99.90;;;;;;5012791;28;20320;-78
2023/03/14 03:22:59;;;;;;;22.27;4.30;;;12.60;99.90;;;;;;5012853;28;20036;-77
2023/03/14 03:25:26;;;;;;;23.83;5.18;;;12.60;99.90;;;;;;5010801;28;20069;-78
2023/03/14 03:27:52;;;;;;;17.90;3.67;;;12.60;99.90;;;;;;5012305;28;20081;-78
2023/03/14 03:30:21;;;;;;;19.98;4.78;;;12.60;99.90;;;;;;5012123;28;20370;-75
2023/03/14 03:32:49;;;;;;;17.20;4.30;;;12.60;99.90;;;;;;5012140;28;20414;-78
2023/03/14 03:35:15;;;;;;;17.73;4.50;;;12.50;99.90;;;;;;5012243;28;20022;-78
2023/03/14 03:37:42;;;;;;;19.95;4.43;;;12.40;99.90;;;;;;5012064;28;20026;-78
2023/03/14 03:40:09;;;;;;;17.13;4.45;;;12.40;99.90;;;;;;5012277;28;20030;-75
2023/03/14 03:42:35;;;;;;;15.80;4.07;;;12.40;99.90;;;;;;5012077;28;20050;-75
2023/03/14 03:45:05;;;;;;;20.30;4.15;;;12.40;99.90;;;;;;5011438;28;20105;-76
2023/03/14 03:47:33;;;;;;;16.83;4.45;;;12.40;99.90;;;;;;5010725;28;20032;-78
2023/03/14 03:50:00;;;;;;;15.50;4.00;;;12.50;99.90;;;;;;5008968;28;20462;-78
2023/03/14 03:52:28;;;;;;;13.13;3.95;;;12.40;99.90;;;;;;5010642;28;20033;-75
2023/03/14 03:54:55;;;;;;;19.85;4.18;;;12.30;99.90;;;;;;5010832;28;20041;-76
2023/03/14 03:57:21;;;;;;;18.00;4.40;;;12.30;99.90;;;;;;5011331;28;20029;-78
2023/03/14 03:59:47;;;;;;;10.53;3.63;;;12.30;99.90;;;;;;5010800;28;20197;-77
2023/03/14 04:02:15;;;;;;;23.10;3.70;;;12.30;99.90;;;;;;5011682;28;20139;-78
2023/03/14 04:04:41;;;;;;;21.42;4.40;;;12.30;99.90;;;;;;5012328;28;20014;-78
2023/03/14 04:07:09;;;;;;;20.73;4.83;;;12.30;99.90;;;;;;5012492;28;20036;-77
2023/03/14 04:09:35;;;;;;;17.52;3.72;;;12.30;99.90;;;;;;5011822;28;20051;-77
2023/03/14 04:12:02;;;;;;;21.87;4.03;;;12.40;99.90;;;;;;5013226;28;20532;-77
2023/03/14 04:14:32;;;;;;;20.77;4.28;;;12.30;99.90;;;;;;5012438;28;20077;-79
2023/03/14 04:17:00;;;;;;;19.38;4.03;;;12.30;99.90;;;;;;5011265;28;20046;-78
2023/03/14 04:19:26;;;;;;;20.17;3.42;;;12.30;99.90;;;;;;5012991;28;20105;-76
2023/03/14 04:21:53;;;;;;;17.42;3.50;;;12.30;99.90;;;;;;5012322;28;20034;-78
2023/03/14 04:24:20;;;;;;;21.88;3.95;;;12.30;99.90;;;;;;5010978;28;20018;-74
2023/03/14 04:26:50;;;;;;;14.70;4.18;;;12.40;99.90;;;;;;5011471;28;20038;-76
2023/03/14 04:29:29;;;;;;;13.15;3.05;;;12.40;99.90;;;;;;5009178;28;20080;-74
2023/03/14 04:31:56;;;;;;;11.60;3.42;;;12.40;99.90;;;;;;5010083;28;20112;-72
2023/03/14 04:34:22;;;;;;;20.25;3.50;;;12.40;99.90;;;;;;5027600;28;20406;-77
2023/03/14 04:36:49;;;;;;;24.10;3.40;;;12.40;99.90;;;;;;5010308;28;20084;-77
2023/03/14 04:39:15;;;;;;;18.00;3.83;;;12.40;99.90;;;;;;5015992;28;20076;-78
2023/03/14 04:41:41;;;;;;;15.10;3.17;;;12.40;99.90;;;;;;5012573;28;20501;-77
2023/03/14 04:44:07;;;;;;;18.30;4.78;;;12.30;99.90;;;;;;5012458;28;20327;-78
2023/03/14 04:46:34;;;;;;;20.05;3.58;;;12.30;99.90;;;;;;5012406;28;20030;-72
2023/03/14 04:49:00;;;;;;;18.48;4.03;;;12.30;99.90;;;;;;5011188;28;20030;-78
2023/03/14 04:51:28;;;;;;;15.93;3.80;;;12.30;99.90;;;;;;5010823;28;20041;-77
2023/03/14 04:53:55;;;;;;;17.80;3.40;;;12.30;99.90;;;;;;5012807;28;20356;-78
2023/03/14 04:56:21;;;;;;;13.77;3.83;;;12.40;99.90;;;;;;5012438;28;20483;-78
2023/03/14 04:58:47;;;;;;;22.27;3.72;;;12.30;99.90;;;;;;5012922;28;20433;-78
2023/03/14 05:01:14;;;;;;;21.52;3.80;;;12.40;99.90;;;;;;5013103;28;20026;-80
2023/03/14 05:03:40;;;;;;;;;;;12.40;99.90;;;;;;5012919;28;20022;-78
2023/03/14 05:06:06;;;;;;;17.50;4.23;;;12.40;99.90;;;;;;5011328;28;19916;-77
2023/03/14 05:08:33;;;;;;;14.03;4.17;;;12.40;99.90;;;;;;5012822;28;20268;-78
2023/03/14 05:10:59;;;;;;;22.33;4.13;;;12.40;99.90;;;;;;5012704;28;20161;-78
2023/03/14 05:13:25;;;;;;;24.57;4.53;;;12.40;99.90;;;;;;5012804;28;20057;-78
2023/03/14 05:15:53;;;;;;;16.43;3.50;;;12.50;99.90;;;;;;5013250;28;20030;-78
2023/03/14 05:18:19;;;;;;;16.92;3.42;;;12.50;99.90;;;;;;5012653;28;20280;-79
2023/03/14 05:20:46;;;;;;;17.02;4.15;;;12.60;99.90;;;;;;5012737;28;20025;-78
2023/03/14 05:23:12;;;;;;;17.07;3.87;;;12.60;99.90;;;;;;5016201;28;20061;-77
2023/03/14 05:25:38;;;;;;;16.67;3.60;;;12.60;99.90;;;;;;5016244;28;20823;-78
2023/03/14 05:28:04;;;;;;;19.52;3.75;;;12.70;99.90;;;;;;5016339;28;20127;-78
2023/03/14 05:30:34;;;;;;;19.52;4.05;;;12.70;99.90;;;;;;5015795;28;20029;-77
2023/03/14 05:33:01;;;;;;;20.02;4.13;;;12.60;99.90;;;;;;5016883;28;20122;-78
2023/03/14 05:35:27;;;;;;;20.38;4.70;;;12.50;99.90;;;;;;5025679;28;20034;-78
2023/03/14 05:37:53;;;;;;;17.10;3.97;;;12.60;99.90;;;;;;5016197;28;20030;-77
2023/03/14 05:40:22;;;;;;;17.83;3.87;;;12.60;99.90;;;;;;5016092;28;20351;-78
2023/03/14 05:42:50;;;;;;;19.33;3.45;;;12.50;99.90;;;;;;5016406;28;20022;-78
2023/03/14 05:45:16;;;;;;;17.73;4.30;;;12.50;99.90;;;;;;5016070;28;20327;-79
2023/03/14 05:47:43;;;;;;;16.63;3.67;;;12.40;99.90;;;;;;5016218;28;20026;-78
2023/03/14 05:50:12;;;;;;;25.17;4.22;;;12.50;99.90;;;;;;5016210;28;20260;-78
2023/03/14 05:52:39;;;;;;;17.20;3.58;;;12.50;99.90;;;;;;5014337;28;20038;-76
2023/03/14 05:55:12;;;;;;;13.60;4.00;;;12.50;99.90;;;;;;5015486;28;20022;-78
2023/03/14 05:57:41;;;;;;;13.70;3.75;;;12.60;99.90;;;;;;5016297;28;20033;-78
2023/03/14 06:00:10;;;;;;;19.42;4.18;;;12.50;99.90;;;;;;5015718;28;20038;-77
2023/03/14 06:02:37;;;;;;;17.95;4.15;;;12.60;99.90;;;;;;5013832;28;20026;-77
2023/03/14 06:05:04;;;;;;;19.63;3.70;;;12.60;99.90;;;;;;5013960;28;20037;-77
2023/03/14 06:07:30;;;;;;;20.10;3.35;;;12.50;99.90;;;;;;5015137;28;20032;-78
2023/03/14 06:09:58;;;;;;;23.08;3.55;;;12.60;99.90;;;;;;5013664;28;20038;-78
2023/03/14 06:12:24;;;;;;;22.42;3.80;;;12.60;99.90;;;;;;5015019;28;20109;-78
2023/03/14 06:14:53;;;;;;;19.73;3.85;;;12.70;99.90;;;;;;5015106;28;20037;-77
2023/03/14 06:17:23;;;;;;;17.52;3.90;;;12.70;99.90;;;;;;5015195;28;20517;-76
2023/03/14 06:19:50;;;;;;;18.08;3.45;;;12.90;99.90;;;;;;5015038;28;20026;-77
2023/03/14 06:22:19;;;;;;;19.55;4.13;;;13.00;99.90;;;;;;5013645;28;20566;-77
2023/03/14 06:24:45;;;;;;;12.95;3.20;;;13.00;99.90;;;;;;5015178;28;20046;-78
2023/03/14 06:27:11;;;;;;;11.10;2.97;;;13.50;99.90;;;;;;5013043;28;20034;-77
2023/03/14 06:29:38;;;;;;;;;;;13.50;99.90;;;;;;5014585;28;20478;-77
2023/03/14 06:32:05;;;;;;;18.10;2.85;;;13.40;99.90;;;;;;5013900;28;19914;-76
2023/03/14 06:34:31;;;;;;;17.90;3.30;;;13.20;99.90;;;;;;5014233;28;20053;-77
2023/03/14 06:36:57;;;;;;;11.73;2.73;;;13.20;99.90;;;;;;5014096;28;20034;-76
2023/03/14 06:39:23;;;;;;;18.75;3.58;;;13.10;99.90;;;;;;5013786;28;20267;-77
2023/03/14 06:41:56;;;;;;;19.27;3.47;;;13.20;99.90;;;;;;5014204;28;20084;-77
2023/03/14 06:44:22;;;;;;;15.85;3.25;;;13.40;99.90;;;;;;5012449;28;20034;-78
2023/03/14 06:46:50;;;;;;;15.53;3.57;;;13.30;99.90;;;;;;5013750;28;20029;-79
2023/03/14 06:49:17;;;;;;;13.23;2.72;;;13.30;99.90;;;;;;5013203;28;20045;-77
2023/03/14 06:51:43;;;;;;;17.23;3.53;;;13.10;99.90;;;;;;5012672;28;20026;-78
2023/03/14 06:54:09;;;;;;;22.20;3.70;;;13.10;99.90;;;;;;5012554;28;20062;-78
2023/03/14 06:56:37;;;;;;;17.63;3.97;;;13.20;99.90;;;;;;5017035;28;20037;-78
2023/03/14 06:59:09;;;;;;;18.58;3.50;;;13.30;99.90;;;;;;5015017;28;20026;-78
2023/03/14 07:01:35;;;;;;;19.35;3.65;;;13.40;99.90;;;;;;5014050;28;20022;-77
2023/03/14 07:04:02;;;;;;;14.50;3.40;;;13.40;99.90;;;;;;5012603;28;20390;-78
2023/03/14 07:06:36;;;;;;;16.42;4.20;;;13.30;99.90;;;;;;5013759;28;20065;-79
2023/03/14 07:09:03;;;;;;;14.95;2.95;;;13.60;99.90;;;;;;5014302;28;20026;-80
2023/03/14 07:11:29;;;;;;;15.43;3.15;;;13.70;99.90;;;;;;5012186;28;20026;-77
2023/03/14 07:13:56;;;;;;;17.07;3.30;;;13.40;99.90;;;;;;5013903;28;20037;-78
2023/03/14 07:16:23;;;;;;;16.35;3.00;;;13.50;99.90;;;;;;5014416;28;20042;-77
2023/03/14 07:18:49;;;;;;;15.83;2.53;;;13.50;99.90;;;;;;5013806;28;20428;-76
2023/03/14 07:21:16;;;;;;;20.70;3.63;;;13.60;99.90;;;;;;5013639;28;20018;-78
2023/03/14 07:23:42;;;;;;;;;;;13.80;99.90;;;;;;5014137;28;20026;-78
2023/03/14 07:26:11;;;;;;;15.82;3.13;;;13.90;99.90;;;;;;5013845;28;20350;-80
2023/03/14 07:28:38;;;;;;;19.35;4.20;;;14.20;99.90;;;;;;5013142;28;20107;-83
2023/03/14 07:31:04;;;;;;;19.77;3.10;;;14.50;99.90;;;;;;5013996;28;20085;-80
2023/03/14 07:33:31;;;;;;;14.90;2.95;;;14.30;99.90;;;;;;5013559;28;20505;-79
2023/03/14 07:35:58;;;;;;;13.50;3.30;;;14.50;99.90;;;;;;5013477;28;20076;-80
2023/03/14 07:38:23;;;;;;;;;;;14.60;99.90;;;;;;4995726;28;20033;-81
2023/03/14 07:40:50;;;;;;;15.15;2.72;;;15.10;99.90;;;;;;4993893;28;20340;-80
2023/03/14 07:43:17;;;;;;;17.95;3.63;;;15.50;99.90;;;;;;4992792;28;20402;-74
2023/03/14 07:45:46;;;;;;;;;;;15.60;99.90;;;;;;4993483;28;20459;-80
2023/03/14 07:48:12;;;;;;;15.07;3.40;;;15.70;99.90;;;;;;4993994;28;19905;-80
2023/03/14 07:50:42;;;;;;;19.03;2.70;;;15.90;99.90;;;;;;4993780;28;20459;-79
2023/03/14 07:53:09;;;;;;;14.68;3.17;;;16.00;99.90;;;;;;5003911;28;20399;-80
2023/03/14 07:55:35;;;;;;;17.00;2.85;;;16.00;99.90;;;;;;5012801;28;20065;-78
2023/03/14 07:58:01;;;;;;;15.88;2.97;;;16.30;99.90;;;;;;5012691;28;20483;-80
2023/03/14 08:00:28;;;;;;;14.63;3.55;;;16.40;99.90;;;;;;5012828;28;20553;-80
2023/03/14 08:02:54;;;;;;;17.48;3.55;;;16.40;99.90;;;;;;5008840;28;20029;-78
2023/03/14 08:05:20;;;;;;;14.32;2.80;;;16.00;99.90;;;;;;5011724;28;20236;-78
2023/03/14 08:07:48;;;;;;;14.60;2.97;;;15.70;99.90;;;;;;5012580;28;20057;-78
2023/03/14 08:10:24;;;;;;;10.52;2.80;;;15.70;99.90;;;;;;5014644;28;20462;-80
2023/03/14 08:12:56;;;;;;;13.70;2.90;;;15.70;99.90;;;;;;5012244;28;20029;-73
2023/03/14 08:15:28;;;;;;;14.63;2.40;;;15.70;99.90;;;;;;5007848;28;20061;-75
2023/03/14 08:17:55;;;;;;;15.05;2.67;;;15.90;99.90;;;;;;5012642;28;20378;-78
2023/03/14 08:20:23;;;;;;;15.55;3.08;;;15.80;99.90;;;;;;5011667;28;20030;-80
2023/03/14 08:22:49;;;;;;;10.00;2.20;;;16.20;99.90;;;;;;5013495;28;20030;-79
2023/03/14 08:25:16;;;;;;;14.73;2.90;;;16.10;99.90;;;;;;5013232;28;20064;-79
2023/03/14 08:27:46;;;;;;;14.88;2.70;;;15.90;99.90;;;;;;5013567;28;20256;-80
2023/03/14 08:30:17;;;;;;;11.95;2.67;;;15.80;99.90;;;;;;5012638;28;20026;-80
2023/03/14 08:32:43;;;;;;;14.70;2.90;;;16.10;99.90;;;;;;5012776;28;20125;-81
2023/03/14 08:35:11;;;;;;;19.63;3.97;;;16.40;99.90;;;;;;5012874;28;20466;-80
2023/03/14 08:37:38;;;;;;;17.05;3.55;;;16.40;99.90;;;;;;5011320;28;20125;-79
2023/03/14 08:40:08;;;;;;;12.95;2.90;;;16.40;99.90;;;;;;5011214;28;20080;-80
2023/03/14 08:42:34;;;;;;;20.25;3.13;;;16.70;99.90;;;;;;5013193;28;20075;-81
2023/03/14 08:45:00;;;;;;;9.07;2.28;;;16.90;99.90;;;;;;5012919;28;20026;-81
2023/03/14 08:47:29;;;;;;;18.80;2.90;;;16.90;99.90;;;;;;5011005;28;20034;-80
2023/03/14 08:49:56;;;;;;;16.58;2.80;;;16.50;99.90;;;;;;5010989;28;20144;-80
2023/03/14 08:52:23;;;;;;;15.02;2.92;;;16.70;99.90;;;;;;5012684;28;20041;-78
2023/03/14 08:54:49;;;;;;;10.48;2.30;;;16.90;99.90;;;;;;5010730;28;20390;-80
2023/03/14 08:57:16;;;;;;;10.68;2.30;;;17.10;99.90;;;;;;5014393;28;20025;-81
2023/03/14 08:59:42;;;;;;;11.20;2.70;;;17.40;99.90;;;;;;5014523;28;20042;-82
2023/03/14 09:02:13;;;;;;;10.05;2.08;;;17.20;99.90;;;;;;5015555;28;20041;-81
2023/03/14 09:04:39;;;;;;;18.70;2.72;;;17.30;99.90;;;;;;5015974;28;20145;-80
2023/03/14 09:07:05;;;;;;;10.90;2.03;;;17.50;99.90;;;;;;5014549;28;20492;-82
2023/03/14 09:09:31;;;;;;;16.10;2.38;;;17.30;99.90;;;;;;5015552;28;20459;-81
2023/03/14 09:11:59;;;;;;;12.38;2.30;;;17.10;99.90;;;;;;5016137;28;20049;-77
2023/03/14 09:14:26;;;;;;;13.73;2.63;;;17.20;99.90;;;;;;5031500;28;20121;-78
2023/03/14 09:16:53;;;;;;;13.23;2.08;;;17.50;99.90;;;;;;5016458;28;20169;-79
2023/03/14 09:19:19;;;;;;;14.05;2.53;;;17.60;99.90;;;;;;5032073;28;20113;-80
2023/03/14 09:21:45;;;;;;;19.93;2.87;;;17.70;99.90;;;;;;5017214;28;20105;-78
2023/03/14 09:24:17;;;;;;;13.80;2.17;;;18.10;99.90;;;;;;5016056;28;20433;-80
2023/03/14 09:26:43;;;;;;;13.00;2.42;;;18.10;99.90;;;;;;5015828;28;20344;-78
2023/03/14 09:29:10;;;;;;;18.80;2.40;;;17.60;99.90;;;;;;5015337;28;20034;-77
2023/03/14 09:31:36;;;;;;;8.52;1.58;;;17.90;99.90;;;;;;5014445;28;20022;-78
2023/03/14 09:34:02;;;;;;;11.77;2.22;;;17.90;99.90;;;;;;5014783;28;20458;-81
2023/03/14 09:36:28;;;;;;;13.40;1.98;;;18.20;99.90;;;;;;5016429;28;20032;-80
2023/03/14 09:38:54;;;;;;;12.25;2.45;;;17.80;99.90;;;;;;5016437;28;20026;-78
2023/03/14 09:41:34;;;;;;;11.30;2.22;;;17.50;99.90;;;;;;5016195;28;20029;-76
2023/03/14 09:44:05;;;;;;;11.88;2.05;;;17.50;99.90;;;;;;5016492;28;20026;-76
2023/03/14 09:46:36;;;;;;;11.98;2.50;;;17.40;99.90;;;;;;5016202;28;20081;-80
2023/03/14 09:49:24;;;;;;;10.93;2.05;;;17.30;99.90;;;;;;5015705;28;20037;-79
2023/03/14 09:51:55;;;;;;;10.65;2.13;;;17.40;99.90;;;;;;5014209;28;20080;-79
2023/03/14 09:55:10;;;;;;;15.65;3.08;;;17.50;99.90;;;;;;5016602;28;20034;-75
2023/03/14 09:57:41;;;;;;;8.52;1.88;;;17.10;99.90;;;;;;5015939;28;20075;-79
2023/03/14 10:00:28;;;;;;;11.77;2.22;;;17.50;99.90;;;;;;5015574;28;20038;-78
2023/03/14 10:03:07;;;;;;;14.60;2.17;;;18.00;99.90;;;;;;5015442;28;20041;-79
2023/03/14 10:05:34;;;;;;;12.75;2.35;;;18.50;99.90;;;;;;5015638;28;20026;-79
2023/03/14 10:08:01;;;;;;;11.63;2.65;;;18.80;99.90;;;;;;5014525;28;20032;-79
2023/03/14 10:10:28;;;;;;;14.60;2.30;;;19.00;99.90;;;;;;5013352;28;20052;-79
2023/03/14 10:13:24;;;;;;;15.45;2.30;;;18.90;99.90;;;;;;5013525;28;20041;-79
2023/03/14 10:16:02;;;;;;;14.50;2.45;;;18.80;99.90;;;;;;5013563;28;20050;-79
2023/03/14 10:18:30;;;;;;;11.48;2.50;;;18.40;99.90;;;;;;5013843;28;20068;-79
2023/03/14 10:21:27;;;;;;;14.32;2.95;;;18.40;99.90;;;;;;5014444;28;20030;-80
2023/03/14 10:23:53;;;;;;;16.73;3.17;;;18.40;99.90;;;;;;5014496;28;20057;-80
2023/03/14 10:26:33;;;;;;;16.75;2.67;;;18.50;99.90;;;;;;5014289;28;20030;-80
2023/03/14 10:29:12;;;;;;;11.95;2.70;;;18.60;99.90;;;;;;5015005;28;20022;-79
2023/03/14 10:31:54;;;;;;;14.80;4.47;;;18.60;99.90;;;;;;5014685;28;20076;-80
2023/03/14 10:34:27;;;;;;;16.85;3.08;;;18.60;99.90;;;;;;5014875;28;20114;-81
2023/03/14 10:37:03;;;;;;;13.68;3.22;;;18.60;99.90;;;;;;5014910;28;20105;-80
2023/03/14 10:39:50;;;;;;;35.97;3.35;;;18.30;99.90;;;;;;5013896;28;20033;-80
2023/03/14 10:42:29;;;;;;;20.30;3.42;;;18.20;99.90;;;;;;5010111;28;20384;-80
2023/03/14 10:45:00;;;;;;;20.70;2.80;;;18.10;99.90;;;;;;5014062;28;20018;-79
2023/03/14 10:47:28;;;;;;;13.38;2.72;;;17.90;99.90;;;;;;5014051;28;20030;-79
2023/03/14 10:49:55;;;;;;;15.38;2.75;;;17.50;99.90;;;;;;5014088;28;20075;-80
2023/03/14 10:52:29;;;;;;;13.40;2.45;;;17.80;99.90;;;;;;5013384;28;20141;-79
2023/03/14 10:55:01;;;;;;;15.15;2.70;;;18.10;99.90;;;;;;5014350;28;20032;-80
2023/03/14 10:57:29;;;;;;;17.20;3.00;;;18.70;99.90;;;;;;5013975;28;20442;-80
2023/03/14 11:00:08;;;;;;;17.02;2.85;;;19.10;99.90;;;;;;5014136;28;20018;-80
2023/03/14 11:03:06;;;;;;;17.02;2.88;;;19.40;99.90;;;;;;5014061;28;20408;-81
2023/03/14 11:05:52;;;;;;;16.13;3.08;;;19.20;99.90;;;;;;5014187;28;20080;-76
2023/03/14 11:08:41;;;;;;;16.08;2.65;;;18.90;99.90;;;;;;5014082;28;20188;-77
2023/03/14 11:11:21;;;;;;;21.55;2.90;;;18.90;99.90;;;;;;5007998;28;20490;-79
2023/03/14 11:14:29;;;;;;;13.30;2.75;;;19.10;99.90;;;;;;5013015;28;20085;-80
2023/03/14 11:17:16;;;;;;;16.35;2.67;;;19.30;99.90;;;;;;5012026;28;20049;-78
2023/03/14 11:19:59;;;;;;;15.88;2.55;;;19.40;99.90;;;;;;5013308;28;20022;-80
2023/03/14 11:22:37;;;;;;;16.38;2.88;;;19.50;99.90;;;;;;5012689;28;20072;-79
2023/03/14 11:25:06;;;;;;;14.55;2.95;;;19.60;99.90;;;;;;5012454;28;20125;-80
2023/03/14 11:27:38;;;;;;;14.60;2.78;;;19.70;99.90;;;;;;5013823;28;20076;-80
2023/03/14 11:30:28;;;;;;;16.15;2.83;;;19.10;99.90;;;;;;5013212;28;20474;-80
2023/03/14 11:33:24;;;;;;;22.63;2.92;;;18.90;99.90;;;;;;5011705;28;20474;-79
2023/03/14 11:36:07;;;;;;;17.80;2.97;;;19.00;99.90;;;;;;5004444;28;20030;-81
2023/03/14 11:38:48;;;;;;;23.05;3.15;;;19.30;99.90;;;;;;5012322;28;20022;-80
2023/03/14 11:41:30;;;;;;;18.17;3.38;;;19.00;99.90;;;;;;5013447;28;20021;-80
2023/03/14 11:43:59;;;;;;;16.05;2.30;;;19.40;99.90;;;;;;5013273;28;20045;-81
2023/03/14 11:46:36;;;;;;;14.23;3.72;;;19.80;99.90;;;;;;5013292;28;20028;-79
2023/03/14 11:49:18;;;;;;;19.85;3.70;;;20.30;99.90;;;;;;5011433;28;20018;-79
2023/03/14 11:51:47;;;;;;;15.90;2.95;;;20.30;99.90;;;;;;5013447;28;20030;-79
2023/03/14 11:54:24;;;;;;;17.27;3.85;;;20.30;99.90;;;;;;5012136;28;20065;-80
2023/03/14 11:56:57;;;;;;;18.70;3.53;;;20.20;99.90;;;;;;5012992;28;20026;-80
2023/03/14 11:59:46;;;;;;;25.80;4.53;;;20.30;99.90;;;;;;5013081;28;20033;-79
2023/03/14 12:02:24;;;;;;;15.57;3.25;;;20.00;99.90;;;;;;5011413;28;20316;-79
2023/03/14 12:05:42;;;;;;;27.25;4.10;;;19.70;99.90;;;;;;5012297;28;20022;-80
2023/03/14 12:08:22;;;;;;;22.65;3.95;;;19.90;99.90;;;;;;4969104;28;20128;-75
2023/03/14 12:10:53;;;;;;;20.52;3.85;;;19.90;99.90;;;;;;4990593;28;20088;-78
2023/03/14 12:13:20;;;;;;;25.63;4.13;;;19.50;99.90;;;;;;4974084;28;20408;-78
2023/03/14 12:15:58;;;;;;;;;;;19.20;99.90;;;;;;4990975;28;20030;-77
2023/03/14 12:18:29;;;;;;;21.10;3.70;;;18.90;99.90;;;;;;4990930;28;19924;-78
2023/03/14 12:21:04;;;;;;;20.70;4.18;;;18.60;99.90;;;;;;4991611;28;20035;-80
2023/03/14 12:23:57;;;;;;;13.95;2.85;;;18.50;99.90;;;;;;4991847;28;20114;-79
2023/03/14 12:26:24;;;;;;;20.38;3.85;;;18.50;99.90;;;;;;4992263;28;20544;-79
2023/03/14 12:28:58;;;;;;;18.17;3.97;;;18.40;99.90;;;;;;4997204;28;20081;-79
2023/03/14 12:31:30;;;;;;;17.25;3.40;;;18.50;99.90;;;;;;4994833;28;20341;-79
2023/03/14 12:34:14;;;;;;;26.60;3.90;;;18.40;99.90;;;;;;4979371;28;20042;-79
2023/03/14 12:36:49;;;;;;;20.85;3.42;;;18.20;99.90;;;;;;4978912;28;20164;-79
2023/03/14 12:39:33;;;;;;;29.48;4.75;;;18.30;99.90;;;;;;5011537;28;20218;-78
2023/03/14 12:42:05;;;;;;;17.40;3.95;;;18.20;99.90;;;;;;5016947;28;20030;-78
2023/03/14 12:44:31;;;;;;;15.52;3.20;;;18.30;99.90;;;;;;5016616;28;20061;-78
2023/03/14 12:47:15;;;;;;;24.92;3.70;;;17.90;99.90;;;;;;5015528;28;20038;-78
2023/03/14 12:49:42;;;;;;;17.33;4.00;;;17.80;99.90;;;;;;5016621;28;20304;-78
2023/03/14 12:52:16;;;;;;;20.27;3.97;;;17.90;99.90;;;;;;5016198;28;20030;-78
2023/03/14 12:55:06;;;;;;;24.30;3.72;;;17.90;99.90;;;;;;5014679;28;20449;-78
2023/03/14 12:57:42;;;;;;;21.63;4.07;;;18.00;99.90;;;;;;5016579;28;20022;-79